Time;durP1;ratioP1;P1;durP2;ratioP2;P2;SDS_P1;SDS_P2;PMS_P1;PMS_P2;Temp;Humidity;BMP_temperature;BMP_pressure;BME280_temperature;BME280_humidity;BME280_pressure;Samples;Min_cycle;Max_cycle;Signal;HPM_P1;HPM_P2
2022/04/07 00:00:50;;;;;;;;;;;;;;;8.97;62.45;96790.59;2602515;28;19925;-81
2022/04/07 00:02:06;;;;;;;;;;;;;;;8.98;62.52;96792.28;2602609;28;19925;-82
2022/04/07 00:03:21;;;;;;;;;;;;;;;8.98;62.59;96787.06;2603316;28;19968;-82
2022/04/07 00:04:37;;;;;;;;;;;;;;;8.94;62.84;96782.94;2601772;28;19925;-82
2022/04/07 00:05:52;;;;;;;;;;;;;;;8.94;62.64;96793.38;2604101;28;19924;-81
2022/04/07 00:07:08;;;;;;;;;;;;;;;8.97;62.47;96788.00;2604026;28;19924;-83
2022/04/07 00:08:23;;;;;;;;;;;;;;;8.97;62.70;96784.56;2603743;28;19925;-82
2022/04/07 00:09:39;;;;;;;;;;;;;;;8.95;62.66;96783.78;2604170;28;19935;-82
2022/04/07 00:10:54;;;;;;;;;;;;;;;8.93;62.67;96781.25;2602497;28;19921;-82
2022/04/07 00:12:10;;;;;;;;;;;;;;;8.89;63.05;96782.31;2603323;28;19936;-81
2022/04/07 00:13:26;;;;;;;;;;;;;;;8.86;63.08;96785.91;2601939;28;19960;-80
2022/04/07 00:14:41;;;;;;;;;;;;;;;8.85;63.04;96780.75;2604452;28;20026;-82
2022/04/07 00:15:58;;;;;;;;;;;;;;;8.86;63.12;96782.44;2602054;28;20464;-81
2022/04/07 00:17:14;;;;;;;;;;;;;;;8.87;63.02;96786.75;2603759;28;19932;-81
2022/04/07 00:18:31;;;;;;;;;;;;;;;8.84;63.10;96779.06;2602390;28;19928;-82
2022/04/07 00:19:46;;;;;;;;;;;;;;;8.87;62.96;96787.59;2603307;28;19974;-82
2022/04/07 00:21:11;;;;;;;;;;;;;;;8.80;63.20;96781.00;2601274;28;19929;-81
2022/04/07 00:22:27;;;;;;;;;;;;;;;8.76;63.26;96780.28;2602738;28;19924;-82
2022/04/07 00:23:42;;;;;;;;;;;;;;;8.77;63.38;96781.13;2602405;28;19931;-82
2022/04/07 00:24:58;;;;;;;;;;;;;;;8.78;63.19;96774.97;2602871;28;20352;-82
2022/04/07 00:26:13;;;;;;;;;;;;;;;8.74;63.26;96770.84;2603781;28;19932;-83
2022/04/07 00:27:29;;;;;;;;;;;;;;;8.71;63.54;96763.16;2603427;28;19929;-83
2022/04/07 00:28:44;;;;;;;;;;;;;;;8.71;63.53;96763.16;2603466;28;20027;-81
2022/04/07 00:30:00;;;;;;;;;;;;;;;8.69;63.41;96763.22;2601878;28;19931;-82
2022/04/07 00:31:17;;;;;;;;;;;;;;;8.71;63.47;96750.13;2602987;28;20000;-81
2022/04/07 00:32:39;;;;;;;;;;;;;;;8.67;63.65;96759.84;2604479;28;19932;-81
2022/04/07 00:33:55;;;;;;;;;;;;;;;8.66;63.70;96759.91;2603060;28;19925;-83
2022/04/07 00:35:10;;;;;;;;;;;;;;;8.63;63.89;96760.91;2602010;28;19925;-83
2022/04/07 00:36:26;;;;;;;;;;;;;;;8.62;63.71;96762.66;2602131;28;19925;-82
2022/04/07 00:37:41;;;;;;;;;;;;;;;8.66;63.63;96755.53;2602862;28;19936;-82
2022/04/07 00:38:57;;;;;;;;;;;;;;;8.57;64.03;96750.75;2603164;28;19924;-81
2022/04/07 00:40:12;;;;;;;;;;;;;;;8.58;63.97;96752.44;2602450;28;19921;-81
2022/04/07 00:41:28;;;;;;;;;;;;;;;8.65;63.79;96750.38;2601605;28;20272;-82
2022/04/07 00:42:44;;;;;;;;;;;;;;;8.67;63.72;96743.38;2604776;28;19920;-81
2022/04/07 00:44:00;;;;;;;;;;;;;;;8.69;63.68;96746.75;2601611;28;19932;-82
2022/04/07 00:45:16;;;;;;;;;;;;;;;8.64;63.79;96749.56;2602181;28;19925;-83
2022/04/07 00:46:32;;;;;;;;;;;;;;;8.68;63.63;96745.06;2601584;28;19925;-81
2022/04/07 00:47:48;;;;;;;;;;;;;;;8.69;63.69;96741.53;2604517;28;19970;-81
2022/04/07 00:49:04;;;;;;;;;;;;;;;8.70;63.86;96738.00;2603076;28;19960;-82
2022/04/07 00:50:20;;;;;;;;;;;;;;;8.69;63.77;96744.13;2602571;28;20671;-85
2022/04/07 00:51:38;;;;;;;;;;;;;;;8.74;63.70;96739.53;2603574;28;20431;-82
2022/04/07 00:52:58;;;;;;;;;;;;;;;8.79;63.59;96740.13;2602762;28;19925;-82
2022/04/07 00:54:13;;;;;;;;;;;;;;;8.77;63.56;96739.38;2602890;28;19924;-82
2022/04/07 00:55:29;;;;;;;;;;;;;;;8.75;63.65;96742.06;2601347;28;20351;-81
2022/04/07 00:56:44;;;;;;;;;;;;;;;8.78;63.50;96738.44;2602014;28;19931;-81
2022/04/07 00:58:01;;;;;;;;;;;;;;;8.77;63.62;96739.38;2602609;28;20466;-81
2022/04/07 00:59:17;;;;;;;;;;;;;;;8.76;63.68;96735.94;2602779;28;20063;-81
2022/04/07 01:00:34;;;;;;;;;;;;;;;8.79;63.47;96744.53;2601046;28;20011;-81
2022/04/07 01:01:49;;;;;;;;;;;;;;;8.77;63.67;96739.38;2602191;28;19925;-82
2022/04/07 01:03:05;;;;;;;;;;;;;;;8.79;63.68;96737.53;2602643;28;19925;-84
2022/04/07 01:04:21;;;;;;;;;;;;;;;8.76;63.68;96741.16;2602043;28;19925;-83
2022/04/07 01:05:37;;;;;;;;;;;;;;;8.75;63.86;96742.06;2602266;28;19932;-82
2022/04/07 01:06:53;;;;;;;;;;;;;;;8.78;63.70;96733.22;2602396;28;19967;-82
2022/04/07 01:08:09;;;;;;;;;;;;;;;8.78;63.92;96735.00;2601236;28;19925;-81
2022/04/07 01:09:24;;;;;;;;;;;;;;;8.79;63.85;96736.69;2603663;28;19928;-80
2022/04/07 01:10:40;;;;;;;;;;;;;;;8.74;63.87;96735.16;2601871;28;19925;-83
2022/04/07 01:11:56;;;;;;;;;;;;;;;8.73;64.06;96737.84;2601989;28;20383;-81
2022/04/07 01:13:12;;;;;;;;;;;;;;;8.67;64.17;96738.16;2601829;28;19955;-81
2022/04/07 01:14:27;;;;;;;;;;;;;;;8.70;64.14;96735.38;2601623;28;19994;-81
2022/04/07 01:15:43;;;;;;;;;;;;;;;8.67;64.34;96730.31;2603039;28;19940;-82
2022/04/07 01:16:58;;;;;;;;;;;;;;;8.64;64.57;96731.31;2602068;28;20477;-81
2022/04/07 01:18:14;;;;;;;;;;;;;;;8.66;64.34;96734.69;2601405;28;20007;-81
2022/04/07 01:19:29;;;;;;;;;;;;;;;8.69;64.43;96736.31;2602781;28;19936;-81
2022/04/07 01:20:45;;;;;;;;;;;;;;;8.64;64.66;96731.31;2601018;28;20379;-81
2022/04/07 01:22:00;;;;;;;;;;;;;;;8.68;64.30;96729.41;2604218;28;20383;-84
2022/04/07 01:23:15;;;;;;;;;;;;;;;8.65;64.77;96734.75;2601720;28;19935;-83
2022/04/07 01:24:31;;;;;;;;;;;;;;;8.69;64.73;96728.47;2603133;28;19925;-84
2022/04/07 01:25:47;;;;;;;;;;;;;;;8.65;64.67;96733.00;2602368;28;19935;-82
2022/04/07 01:27:03;;;;;;;;;;;;;;;8.66;64.99;96724.25;2602890;28;19924;-85
2022/04/07 01:28:18;;;;;;;;;;;;;;;8.64;65.07;96731.31;2601744;28;19925;-82
2022/04/07 01:29:34;;;;;;;;;;;;;;;8.60;65.07;96727.97;2603321;28;20326;-81
2022/04/07 01:30:49;;;;;;;;;;;;;;;8.60;65.00;96720.16;2601544;28;19933;-81
2022/04/07 01:32:10;;;;;;;;;;;;;;;8.58;65.18;96724.59;2604127;28;19928;-81
2022/04/07 01:33:26;;;;;;;;;;;;;;;8.57;65.33;96728.13;2601167;28;19925;-85
2022/04/07 01:34:41;;;;;;;;;;;;;;;8.61;65.15;96724.47;2600128;28;20007;-82
2022/04/07 01:35:57;;;;;;;;;;;;;;;8.63;64.89;96729.63;2606567;28;19932;-82
2022/04/07 01:37:13;;;;;;;;;;;;;;;8.62;65.07;96722.72;2604691;28;19921;-81
2022/04/07 01:38:28;;;;;;;;;;;;;;;8.59;65.25;96725.44;2601122;28;19931;-81
2022/04/07 01:39:44;;;;;;;;;;;;;;;8.58;65.14;96727.22;2603505;28;20402;-81
2022/04/07 01:41:00;;;;;;;;;;;;;;;8.59;65.23;96728.91;2602534;28;19929;-84
2022/04/07 01:42:16;;;;;;;;;;;;;;;8.60;65.25;96727.16;2601773;28;20288;-82
2022/04/07 01:43:32;;;;;;;;;;;;;;;8.57;65.24;96725.53;2601712;28;20440;-82
2022/04/07 01:44:49;;;;;;;;;;;;;;;8.54;65.49;96723.06;2601603;28;19927;-82
2022/04/07 01:46:06;;;;;;;;;;;;;;;8.56;65.38;96722.97;2600912;28;20292;-83
2022/04/07 01:47:22;;;;;;;;;;;;;;;8.52;65.49;96719.69;2601402;28;20773;-82
2022/04/07 01:48:37;;;;;;;;;;;;;;;8.54;65.42;96720.47;2600798;28;19966;-81
2022/04/07 01:50:00;;;;;;;;;;;;;;;8.55;65.50;96729.13;2600797;28;20416;-82
2022/04/07 01:51:16;;;;;;;;;;;;;;;8.49;65.71;96732.81;2602852;28;19925;-82
2022/04/07 01:52:33;;;;;;;;;;;;;;;8.46;65.53;96725.16;2602662;28;20390;-82
2022/04/07 01:53:49;;;;;;;;;;;;;;;8.42;66.00;96728.84;2603995;28;19925;-82
2022/04/07 01:55:04;;;;;;;;;;;;;;;8.54;65.55;96722.22;2601552;28;19924;-81
2022/04/07 01:56:20;;;;;;;;;;;;;;;8.50;65.68;96712.81;2600430;28;20434;-86
2022/04/07 01:57:37;;;;;;;;;;;;;;;8.47;65.78;96721.63;2601781;28;20387;-81
2022/04/07 01:58:53;;;;;;;;;;;;;;;8.44;65.77;96716.56;2603356;28;19928;-81
2022/04/07 02:00:09;;;;;;;;;;;;;;;8.42;65.92;96718.41;2602695;28;19955;-81
2022/04/07 02:01:24;;;;;;;;;;;;;;;8.38;66.02;96717.69;2600560;28;20334;-82
2022/04/07 02:02:40;;;;;;;;;;;;;;;8.43;66.15;96714.88;2600851;28;20209;-81
2022/04/07 02:03:55;;;;;;;;;;;;;;;8.37;66.32;96721.22;2600006;28;19924;-87
2022/04/07 02:05:11;;;;;;;;;;;;;;;8.37;66.30;96712.53;2602715;28;19935;-85
2022/04/07 02:06:27;;;;;;;;;;;;;;;8.34;66.38;96709.16;2602715;28;19982;-82
2022/04/07 02:07:43;;;;;;;;;;;;;;;8.34;66.40;96708.34;2601748;28;19964;-81
2022/04/07 02:08:59;;;;;;;;;;;;;;;8.43;66.18;96702.66;2600496;28;20060;-84
2022/04/07 02:10:15;;;;;;;;;;;;;;;8.40;66.40;96710.63;2602087;28;19925;-84
2022/04/07 02:11:32;;;;;;;;;;;;;;;8.43;66.36;96705.28;2600970;28;20281;-81
2022/04/07 02:12:48;;;;;;;;;;;;;;;8.40;66.44;96715.84;2603596;28;19990;-81
2022/04/07 02:14:03;;;;;;;;;;;;;;;8.47;66.14;96705.97;2602256;28;19924;-81
2022/04/07 02:15:19;;;;;;;;;;;;;;;8.49;66.21;96714.56;2600781;28;20591;-81
2022/04/07 02:16:34;;;;;;;;;;;;;;;8.48;66.34;96705.06;2602715;28;20474;-84
2022/04/07 02:17:50;;;;;;;;;;;;;;;8.47;66.24;96704.22;2602844;28;19931;-81
2022/04/07 02:19:05;;;;;;;;;;;;;;;8.45;66.43;96700.84;2600406;28;19943;-82
2022/04/07 02:20:21;;;;;;;;;;;;;;;8.45;66.56;96703.47;2602781;28;19925;-83
2022/04/07 02:21:36;;;;;;;;;;;;;;;8.52;66.41;96697.97;2601477;28;19995;-81
2022/04/07 02:22:52;;;;;;;;;;;;;;;8.53;66.42;96699.66;2600260;28;19972;-82
2022/04/07 02:24:10;;;;;;;;;;;;;;;8.56;66.24;96700.38;2603031;28;19944;-81
2022/04/07 02:25:27;;;;;;;;;;;;;;;8.58;66.19;96697.66;2599270;28;19986;-81
2022/04/07 02:26:43;;;;;;;;;;;;;;;8.59;66.36;96700.22;2600419;28;20391;-82
2022/04/07 02:27:58;;;;;;;;;;;;;;;8.54;66.52;96694.38;2600318;28;19925;-85
2022/04/07 02:29:14;;;;;;;;;;;;;;;8.48;66.66;96698.09;2601255;28;19951;-85
2022/04/07 02:30:29;;;;;;;;;;;;;;;8.51;66.58;96699.72;2601193;28;19983;-82
2022/04/07 02:31:44;;;;;;;;;;;;;;;8.53;66.61;96699.66;2603186;28;20384;-85
2022/04/07 02:33:00;;;;;;;;;;;;;;;8.50;66.72;96700.63;2601191;28;19925;-82
2022/04/07 02:34:15;;;;;;;;;;;;;;;8.51;66.65;96701.50;2601861;28;19925;-83
2022/04/07 02:35:31;;;;;;;;;;;;;;;8.49;66.81;96701.53;2600882;28;19924;-82
2022/04/07 02:36:46;;;;;;;;;;;;;;;8.46;66.93;96702.53;2601951;28;19976;-82
2022/04/07 02:38:02;;;;;;;;;;;;;;;8.44;67.04;96691.31;2603043;28;19974;-82
2022/04/07 02:39:17;;;;;;;;;;;;;;;8.47;66.94;96687.72;2601471;28;19943;-82
2022/04/07 02:40:32;;;;;;;;;;;;;;;8.44;66.95;96687.88;2601286;28;19928;-81
2022/04/07 02:41:48;;;;;;;;;;;;;;;8.43;67.04;96692.22;2601485;28;20384;-82
2022/04/07 02:43:04;;;;;;;;;;;;;;;8.37;67.34;96689.06;2602167;28;19921;-81
2022/04/07 02:44:19;;;;;;;;;;;;;;;8.36;67.34;96692.59;2601035;28;20020;-80
2022/04/07 02:45:35;;;;;;;;;;;;;;;8.31;67.62;96695.41;2600574;28;19932;-84
2022/04/07 02:46:50;;;;;;;;;;;;;;;8.33;67.56;96688.41;2601114;28;19925;-81
2022/04/07 02:48:05;;;;;;;;;;;;;;;8.32;67.71;96697.13;2602991;28;19925;-82
2022/04/07 02:49:21;;;;;;;;;;;;;;;8.32;67.67;96692.75;2599690;28;19920;-81
2022/04/07 02:50:36;;;;;;;;;;;;;;;8.34;67.82;96683.09;2600398;28;21164;-81
2022/04/07 02:51:52;;;;;;;;;;;;;;;8.32;67.85;96686.72;2600031;28;20011;-82
2022/04/07 02:53:07;;;;;;;;;;;;;;;8.39;67.78;96682.88;2602131;28;19966;-83
2022/04/07 02:54:23;;;;;;;;;;;;;;;8.39;67.78;96682.03;2601652;28;19924;-83
2022/04/07 02:55:38;;;;;;;;;;;;;;;8.41;67.73;96680.22;2601841;28;20342;-81
2022/04/07 02:56:55;;;;;;;;;;;;;;;8.41;67.78;96681.03;2600827;28;20392;-82
2022/04/07 02:58:11;;;;;;;;;;;;;;;8.38;67.92;96682.94;2601023;28;19943;-80
2022/04/07 02:59:26;;;;;;;;;;;;;;;8.42;67.78;96681.91;2602991;28;20381;-82
2022/04/07 03:00:41;;;;;;;;;;;;;;;8.45;67.84;96689.56;2600289;28;19924;-83
2022/04/07 03:01:58;;;;;;;;;;;;;;;8.46;67.99;96691.25;2602470;28;19925;-81
2022/04/07 03:03:13;;;;;;;;;;;;;;;8.47;67.91;96690.34;2600608;28;20440;-82
2022/04/07 03:04:29;;;;;;;;;;;;;;;8.48;67.87;96690.28;2600047;28;19936;-82
2022/04/07 03:05:44;;;;;;;;;;;;;;;8.45;67.87;96682.59;2601345;28;19964;-82
2022/04/07 03:07:00;;;;;;;;;;;;;;;8.48;68.00;96687.66;2600360;28;19937;-82
2022/04/07 03:08:15;;;;;;;;;;;;;;;8.51;68.10;96693.69;2601248;28;19928;-82
2022/04/07 03:09:30;;;;;;;;;;;;;;;8.53;67.94;96690.09;2600436;28;19928;-81
2022/04/07 03:10:46;;;;;;;;;;;;;;;8.58;67.87;96688.09;2600659;28;19924;-82
2022/04/07 03:12:02;;;;;;;;;;;;;;;8.53;68.08;96686.63;2601918;28;19963;-81
2022/04/07 03:13:18;;;;;;;;;;;;;;;8.60;67.86;96686.25;2600708;28;19975;-83
2022/04/07 03:14:33;;;;;;;;;;;;;;;8.64;67.61;96676.50;2601999;28;19925;-83
2022/04/07 03:15:48;;;;;;;;;;;;;;;8.65;67.91;96677.34;2600402;28;20533;-82
2022/04/07 03:17:04;;;;;;;;;;;;;;;8.62;67.82;96673.97;2602115;28;19925;-82
2022/04/07 03:18:19;;;;;;;;;;;;;;;8.64;67.91;96667.84;2601834;28;20299;-85
2022/04/07 03:19:35;;;;;;;;;;;;;;;8.64;67.89;96673.91;2600708;28;19933;-83
2022/04/07 03:20:51;;;;;;;;;;;;;;;8.62;67.85;96670.53;2603293;28;20268;-82
2022/04/07 03:22:07;;;;;;;;;;;;;;;8.66;67.89;96668.59;2601562;28;19929;-82
2022/04/07 03:23:23;;;;;;;;;;;;;;;8.72;67.66;96663.09;2599538;28;19964;-82
2022/04/07 03:24:38;;;;;;;;;;;;;;;8.77;67.62;96661.09;2601832;28;20315;-82
2022/04/07 03:25:54;;;;;;;;;;;;;;;8.73;67.93;96664.78;2600331;28;19924;-83
2022/04/07 03:27:10;;;;;;;;;;;;;;;8.73;67.95;96664.78;2601795;28;20490;-82
2022/04/07 03:28:25;;;;;;;;;;;;;;;8.72;67.87;96665.69;2601250;28;19925;-83
2022/04/07 03:29:41;;;;;;;;;;;;;;;8.73;67.84;96659.56;2603224;28;19925;-83
2022/04/07 03:30:56;;;;;;;;;;;;;;;8.73;67.89;96657.81;2602347;28;19925;-82
2022/04/07 03:32:12;;;;;;;;;;;;;;;8.73;68.02;96657.81;2602955;28;19967;-83
2022/04/07 03:33:28;;;;;;;;;;;;;;;8.71;68.10;96661.41;2604315;28;19924;-82
2022/04/07 03:34:43;;;;;;;;;;;;;;;8.67;67.92;96655.50;2604090;28;20299;-82
2022/04/07 03:35:58;;;;;;;;;;;;;;;8.64;68.09;96653.03;2604123;28;20268;-82
2022/04/07 03:37:14;;;;;;;;;;;;;;;8.64;68.54;96654.78;2603952;28;19971;-82
2022/04/07 03:38:30;;;;;;;;;;;;;;;8.65;68.37;96649.50;2602076;28;19929;-82
2022/04/07 03:39:45;;;;;;;;;;;;;;;8.61;68.45;96646.19;2603975;28;19925;-82
2022/04/07 03:41:01;;;;;;;;;;;;;;;8.62;68.68;96650.50;2601325;28;20236;-83
2022/04/07 03:42:16;;;;;;;;;;;;;;;8.71;68.63;96640.53;2602410;28;20386;-86
2022/04/07 03:43:35;;;;;;;;;;;;;;;8.68;68.87;96644.13;2601970;28;20533;-83
2022/04/07 03:44:51;;;;;;;;;;;;;;;8.61;68.97;96646.19;2604213;28;19931;-83
2022/04/07 03:46:06;;;;;;;;;;;;;;;8.62;69.14;96647.06;2604506;28;19921;-83
2022/04/07 03:47:22;;;;;;;;;;;;;;;8.61;69.41;96642.75;2602184;28;19943;-83
2022/04/07 03:48:37;;;;;;;;;;;;;;;8.59;69.62;96647.19;2602298;28;19925;-82
2022/04/07 03:49:52;;;;;;;;;;;;;;;8.58;69.60;96640.28;2605172;28;19925;-82
2022/04/07 03:51:08;;;;;;;;;;;;;;;8.53;69.72;96639.66;2603226;28;20355;-82
2022/04/07 03:52:23;;;;;;;;;;;;;;;8.49;69.77;96644.16;2602188;28;19925;-83
2022/04/07 03:53:39;;;;;;;;;;;;;;;8.51;69.78;96637.13;2602354;28;19988;-84
2022/04/07 03:54:54;;;;;;;;;;;;;;;8.47;70.17;96649.47;2603111;28;20412;-86
2022/04/07 03:56:10;;;;;;;;;;;;;;;8.48;70.13;96642.47;2601702;28;20367;-82
2022/04/07 03:57:26;;;;;;;;;;;;;;;8.48;70.32;96643.31;2604111;28;20375;-83
2022/04/07 03:58:42;;;;;;;;;;;;;;;8.51;70.08;96642.34;2602220;28;19924;-89
2022/04/07 03:59:57;;;;;;;;;;;;;;;8.50;70.32;96637.19;2603183;28;19931;-83
2022/04/07 04:01:13;;;;;;;;;;;;;;;8.49;70.23;96633.72;2604000;28;19933;-83
2022/04/07 04:02:28;;;;;;;;;;;;;;;8.47;70.28;96636.41;2603415;28;19925;-81
2022/04/07 04:03:44;;;;;;;;;;;;;;;8.45;70.29;96640.88;2601384;28;19925;-83
2022/04/07 04:04:59;;;;;;;;;;;;;;;8.45;70.55;96640.88;2603262;28;19936;-82
2022/04/07 04:06:14;;;;;;;;;;;;;;;8.49;70.37;96628.50;2603122;28;19944;-82
2022/04/07 04:07:30;;;;;;;;;;;;;;;8.50;70.36;96632.81;2603376;28;19925;-82
2022/04/07 04:08:45;;;;;;;;;;;;;;;8.51;70.26;96634.50;2602361;28;19925;-82
2022/04/07 04:10:01;;;;;;;;;;;;;;;8.51;70.58;96634.50;2604002;28;19983;-83
2022/04/07 04:11:16;;;;;;;;;;;;;;;8.48;70.50;96632.88;2601864;28;19925;-85
2022/04/07 04:12:33;;;;;;;;;;;;;;;8.50;70.37;96627.63;2601864;28;19929;-83
2022/04/07 04:13:49;;;;;;;;;;;;;;;8.48;70.65;96630.28;2601902;28;19925;-82
2022/04/07 04:15:04;;;;;;;;;;;;;;;8.44;70.73;96627.91;2603149;28;19946;-83
2022/04/07 04:16:20;;;;;;;;;;;;;;;8.47;70.62;96630.34;2603133;28;19968;-82
2022/04/07 04:17:35;;;;;;;;;;;;;;;8.52;70.55;96625.81;2602360;28;19960;-82
2022/04/07 04:18:51;;;;;;;;;;;;;;;8.50;70.68;96625.00;2604304;28;19948;-81
2022/04/07 04:20:06;;;;;;;;;;;;;;;8.48;70.42;96627.69;2601816;28;19925;-82
2022/04/07 04:21:22;;;;;;;;;;;;;;;8.53;70.58;96622.28;2604887;28;20444;-82
2022/04/07 04:22:37;;;;;;;;;;;;;;;8.56;70.51;96627.34;2603339;28;19967;-83
2022/04/07 04:23:53;;;;;;;;;;;;;;;8.52;70.62;96628.41;2603377;28;20338;-83
2022/04/07 04:25:08;;;;;;;;;;;;;;;8.50;71.00;96627.63;2603353;28;20447;-83
2022/04/07 04:26:24;;;;;;;;;;;;;;;8.48;71.00;96632.03;2602615;28;20568;-82
2022/04/07 04:27:40;;;;;;;;;;;;;;;8.44;71.12;96633.13;2601607;28;19991;-86
2022/04/07 04:28:56;;;;;;;;;;;;;;;8.51;71.20;96629.31;2603650;28;19964;-86
2022/04/07 04:30:13;;;;;;;;;;;;;;;8.53;70.85;96631.84;2602778;28;19921;-82
2022/04/07 04:31:28;;;;;;;;;;;;;;;8.55;71.09;96636.06;2603739;28;20146;-84
2022/04/07 04:32:44;;;;;;;;;;;;;;;8.66;70.87;96629.47;2603350;28;19924;-83
2022/04/07 04:34:00;;;;;;;;;;;;;;;8.66;70.48;96632.94;2602823;28;19967;-82
2022/04/07 04:35:15;;;;;;;;;;;;;;;8.69;70.53;96634.56;2602323;28;19925;-82
2022/04/07 04:36:32;;;;;;;;;;;;;;;8.73;70.48;96633.47;2602045;28;19925;-82
2022/04/07 04:37:47;;;;;;;;;;;;;;;8.79;70.44;96627.09;2603161;28;20287;-84
2022/04/07 04:39:03;;;;;;;;;;;;;;;8.85;70.46;96632.00;2602808;28;20451;-81
2022/04/07 04:40:18;;;;;;;;;;;;;;;8.87;71.09;96636.22;2600250;28;19928;-87
2022/04/07 04:41:34;;;;;;;;;;;;;;;8.84;72.39;96639.00;2602436;28;19925;-85
2022/04/07 04:42:49;;;;;;;;;;;;;;;8.76;73.00;96630.69;2602913;28;19929;-84
2022/04/07 04:44:05;;;;;;;;;;;;;;;8.66;74.89;96638.16;2602303;28;19990;-79
2022/04/07 04:45:20;;;;;;;;;;;;;;;8.59;75.16;96641.97;2603509;28;19924;-82
2022/04/07 04:46:35;;;;;;;;;;;;;;;8.54;75.44;96639.59;2603037;28;20330;-82
2022/04/07 04:47:52;;;;;;;;;;;;;;;8.44;76.01;96643.53;2601734;28;19931;-82
2022/04/07 04:49:08;;;;;;;;;;;;;;;8.46;76.58;96642.56;2603516;28;19924;-79
2022/04/07 04:50:25;;;;;;;;;;;;;;;8.46;77.56;96639.09;2602387;28;19947;-82
2022/04/07 04:51:40;;;;;;;;;;;;;;;8.42;78.35;96641.00;2600757;28;19983;-82
2022/04/07 04:52:55;;;;;;;;;;;;;;;8.33;79.06;96641.47;2602642;28;20430;-81
2022/04/07 04:54:13;;;;;;;;;;;;;;;8.31;79.43;96638.06;2602168;28;19921;-81
2022/04/07 04:55:28;;;;;;;;;;;;;;;8.31;79.45;96632.84;2601647;28;19925;-81
2022/04/07 04:56:44;;;;;;;;;;;;;;;8.30;79.45;96632.00;2601975;28;19931;-83
2022/04/07 04:57:59;;;;;;;;;;;;;;;8.29;79.50;96632.94;2602832;28;20392;-84
2022/04/07 04:59:15;;;;;;;;;;;;;;;8.30;79.54;96625.94;2602188;28;20382;-83
2022/04/07 05:00:30;;;;;;;;;;;;;;;8.25;80.34;96626.19;2602177;28;20279;-83
2022/04/07 05:01:45;;;;;;;;;;;;;;;8.23;80.45;96635.81;2601373;28;19929;-81
2022/04/07 05:03:01;;;;;;;;;;;;;;;8.18;81.39;96635.19;2602937;28;19925;-81
2022/04/07 05:04:16;;;;;;;;;;;;;;;8.18;80.87;96638.66;2603287;28;19951;-80
2022/04/07 05:05:32;;;;;;;;;;;;;;;8.19;80.58;96634.28;2602879;28;19927;-81
2022/04/07 05:06:47;;;;;;;;;;;;;;;8.23;79.60;96622.78;2601426;28;19921;-84
2022/04/07 05:08:03;;;;;;;;;;;;;;;8.24;80.35;96621.88;2604254;28;19921;-81
2022/04/07 05:09:18;;;;;;;;;;;;;;;8.40;77.23;96610.72;2603645;28;19920;-82
2022/04/07 05:10:34;;;;;;;;;;;;;;;8.53;76.36;96611.84;2602321;28;19991;-82
2022/04/07 05:11:49;;;;;;;;;;;;;;;8.56;76.35;96603.84;2602266;28;19928;-82
2022/04/07 05:13:05;;;;;;;;;;;;;;;8.54;76.80;96597.88;2602283;28;20272;-82
2022/04/07 05:14:20;;;;;;;;;;;;;;;8.49;77.43;96594.59;2602220;28;20806;-82
2022/04/07 05:15:37;;;;;;;;;;;;;;;8.52;76.28;96599.72;2602103;28;19932;-82
2022/04/07 05:16:53;;;;;;;;;;;;;;;8.56;76.26;96614.28;2601437;28;19978;-82
2022/04/07 05:18:08;;;;;;;;;;;;;;;8.61;76.18;96619.28;2603421;28;20429;-81
2022/04/07 05:19:24;;;;;;;;;;;;;;;8.65;76.26;96626.03;2603219;28;20435;-80
2022/04/07 05:20:39;;;;;;;;;;;;;;;8.65;76.16;96622.56;2601032;28;20047;-82
2022/04/07 05:21:55;;;;;;;;;;;;;;;8.76;74.43;96628.94;2603448;28;19940;-83
2022/04/07 05:23:11;;;;;;;;;;;;;;;8.81;74.11;96623.50;2600806;28;19924;-84
2022/04/07 05:24:26;;;;;;;;;;;;;;;8.78;73.86;96615.81;2601682;28;19931;-85
2022/04/07 05:25:42;;;;;;;;;;;;;;;8.81;73.56;96620.91;2603211;28;19958;-82
2022/04/07 05:26:57;;;;;;;;;;;;;;;8.82;73.83;96621.72;2602226;28;19960;-88
2022/04/07 05:28:12;;;;;;;;;;;;;;;8.82;73.67;96621.72;2603264;28;19931;-86
2022/04/07 05:29:28;;;;;;;;;;;;;;;8.82;73.33;96613.91;2602251;28;19932;-84
2022/04/07 05:30:43;;;;;;;;;;;;;;;8.88;72.62;96618.81;2603374;28;19929;-85
2022/04/07 05:31:59;;;;;;;;;;;;;;;8.92;72.78;96622.09;2602594;28;20419;-85
2022/04/07 05:33:15;;;;;;;;;;;;;;;8.94;72.88;96620.25;2603658;28;19971;-84
2022/04/07 05:34:47;;;;;;;;;;;;;;;9.04;71.40;96616.25;2597694;28;19925;-84
2022/04/07 05:36:03;;;;;;;;;;;;;;;9.07;71.45;96613.47;2603022;28;19932;-83
2022/04/07 05:37:19;;;;;;;;;;;;;;;9.06;71.57;96616.19;2600680;28;19920;-83
2022/04/07 05:38:35;;;;;;;;;;;;;;;9.08;71.98;96609.13;2602595;28;19972;-85
2022/04/07 05:39:53;;;;;;;;;;;;;;;9.13;71.06;96609.72;2601218;28;19933;-84
2022/04/07 05:41:09;;;;;;;;;;;;;;;9.19;71.11;96607.63;2602470;28;20021;-84
2022/04/07 05:42:24;;;;;;;;;;;;;;;9.15;71.80;96600.88;2602431;28;20334;-83
2022/04/07 05:43:40;;;;;;;;;;;;;;;9.15;70.63;96600.88;2601959;28;19967;-84
2022/04/07 05:44:55;;;;;;;;;;;;;;;9.18;70.05;96592.88;2601750;28;19924;-83
2022/04/07 05:46:11;;;;;;;;;;;;;;;9.22;69.74;96593.59;2602235;28;20375;-83
2022/04/07 05:47:26;;;;;;;;;;;;;;;9.24;70.05;96590.91;2602390;28;19928;-83
2022/04/07 05:48:41;;;;;;;;;;;;;;;9.25;70.01;96592.59;2600764;28;19921;-83
2022/04/07 05:49:57;;;;;;;;;;;;;;;9.28;69.18;96595.84;2600959;28;19935;-83
2022/04/07 05:51:13;;;;;;;;;;;;;;;9.34;69.32;96592.06;2603700;28;19925;-88
2022/04/07 05:52:29;;;;;;;;;;;;;;;9.38;68.57;96585.78;2599906;28;20362;-82
2022/04/07 05:53:44;;;;;;;;;;;;;;;9.42;68.60;96595.13;2600591;28;19964;-80
2022/04/07 05:54:59;;;;;;;;;;;;;;;9.49;68.01;96594.81;2600152;28;19929;-84
2022/04/07 05:56:15;;;;;;;;;;;;;;;9.50;68.71;96591.25;2601366;28;19929;-84
2022/04/07 05:57:30;;;;;;;;;;;;;;;9.51;68.51;96583.34;2602495;28;19925;-84
2022/04/07 05:58:46;;;;;;;;;;;;;;;9.56;67.58;96583.09;2601312;28;20007;-84
2022/04/07 06:00:04;;;;;;;;;;;;;;;9.60;67.81;96580.25;2602874;28;19951;-83
2022/04/07 06:01:20;;;;;;;;;;;;;;;9.62;68.11;96574.94;2602516;28;19933;-84
2022/04/07 06:02:36;;;;;;;;;;;;;;;9.68;67.18;96569.38;2602788;28;19921;-84
2022/04/07 06:03:51;;;;;;;;;;;;;;;9.66;67.48;96563.41;2600540;28;19921;-83
2022/04/07 06:05:07;;;;;;;;;;;;;;;9.71;67.16;96566.59;2602824;28;19921;-83
2022/04/07 06:06:23;;;;;;;;;;;;;;;9.72;67.09;96560.44;2601986;28;20355;-85
2022/04/07 06:07:38;;;;;;;;;;;;;;;9.74;67.47;96566.41;2602659;28;19925;-84
2022/04/07 06:08:54;;;;;;;;;;;;;;;9.78;67.32;96559.25;2601702;28;19935;-83
2022/04/07 06:10:10;;;;;;;;;;;;;;;9.82;67.20;96566.00;2601364;28;19928;-82
2022/04/07 06:11:26;;;;;;;;;;;;;;;9.82;66.73;96559.94;2602551;28;19924;-83
2022/04/07 06:12:46;;;;;;;;;;;;;;;9.81;66.57;96571.31;2601813;28;19978;-83
2022/04/07 06:14:01;;;;;;;;;;;;;;;9.83;66.41;96559.84;2601259;28;20020;-83
2022/04/07 06:15:17;;;;;;;;;;;;;;;9.87;66.45;96557.91;2600683;28;20214;-86
2022/04/07 06:16:33;;;;;;;;;;;;;;;9.87;66.13;96561.38;2600483;28;20291;-84
2022/04/07 06:17:50;;;;;;;;;;;;;;;9.90;66.03;96552.50;2603372;28;19920;-84
2022/04/07 06:19:05;;;;;;;;;;;;;;;9.94;66.12;96561.03;2600565;28;19928;-84
2022/04/07 06:20:21;;;;;;;;;;;;;;;9.93;65.39;96562.81;2601861;28;20023;-83
2022/04/07 06:21:36;;;;;;;;;;;;;;;9.95;65.46;96557.47;2600384;28;20051;-88
2022/04/07 06:22:52;;;;;;;;;;;;;;;9.95;66.15;96558.34;2600887;28;19929;-87
2022/04/07 06:24:07;;;;;;;;;;;;;;;9.97;65.11;96560.84;2601116;28;19928;-84
2022/04/07 06:25:23;;;;;;;;;;;;;;;9.94;65.58;96559.25;2601198;28;19934;-84
2022/04/07 06:26:38;;;;;;;;;;;;;;;9.99;65.15;96561.63;2602598;28;19924;-83
2022/04/07 06:27:54;;;;;;;;;;;;;;;10.00;65.01;96556.28;2601724;28;19928;-83
2022/04/07 06:29:10;;;;;;;;;;;;;;;9.99;65.58;96553.78;2601408;28;19925;-83
2022/04/07 06:30:25;;;;;;;;;;;;;;;9.99;64.05;96548.56;2600773;28;19920;-83
2022/04/07 06:31:41;;;;;;;;;;;;;;;9.99;64.83;96546.78;2603628;28;19931;-83
2022/04/07 06:32:56;;;;;;;;;;;;;;;10.02;64.82;96551.81;2601134;28;20000;-87
2022/04/07 06:34:11;;;;;;;;;;;;;;;10.03;64.04;96542.22;2601311;28;20414;-84
2022/04/07 06:35:27;;;;;;;;;;;;;;;10.06;63.33;96543.78;2600085;28;19925;-83
2022/04/07 06:36:43;;;;;;;;;;;;;;;10.08;64.18;96534.13;2600594;28;20371;-83
2022/04/07 06:37:58;;;;;;;;;;;;;;;10.09;63.73;96546.25;2600135;28;20500;-83
2022/04/07 06:39:14;;;;;;;;;;;;;;;10.09;63.58;96543.66;2602141;28;19971;-88
2022/04/07 06:40:29;;;;;;;;;;;;;;;10.09;63.71;96549.69;2602125;28;20486;-86